Time;durP1;ratioP1;P1;durP2;ratioP2;P2;SDS_P1;SDS_P2;PMS_P1;PMS_P2;Temp;Humidity;BMP_temperature;BMP_pressure;BME280_temperature;BME280_humidity;BME280_pressure;Samples;Min_cycle;Max_cycle;Signal;HPM_P1;HPM_P2
2022/10/06 00:02:15;;;;;;;9.65;5.10;;;;;;;15.11;49.46;100950.75;5113459;28;20034;-43
2022/10/06 00:04:40;;;;;;;11.65;5.00;;;;;;;14.95;50.72;100946.59;5113379;28;20031;-43
2022/10/06 00:07:06;;;;;;;10.32;4.70;;;;;;;14.89;50.63;100942.88;5113308;27;20414;-43
2022/10/06 00:09:31;;;;;;;9.55;5.07;;;;;;;14.96;50.12;100943.69;5113589;28;20024;-43
2022/10/06 00:11:57;;;;;;;7.18;4.80;;;;;;;14.96;50.58;100943.69;5113076;28;20406;-44
2022/10/06 00:14:23;;;;;;;10.30;4.80;;;;;;;15.04;50.43;100942.69;5113200;28;20020;-43
2022/10/06 00:16:48;;;;;;;6.80;4.28;;;;;;;14.84;50.93;100934.59;5113041;28;20024;-44
2022/10/06 00:19:14;;;;;;;5.68;4.05;;;;;;;14.92;50.68;100939.78;5113131;28;20035;-44
2022/10/06 00:21:39;;;;;;;9.43;4.60;;;;;;;14.60;51.62;100930.63;5112989;28;20043;-44
2022/10/06 00:24:05;;;;;;;8.15;4.68;;;;;;;14.64;51.85;100934.53;5112903;28;20039;-43
2022/10/06 00:26:30;;;;;;;5.65;4.30;;;;;;;14.70;51.02;100931.06;5113019;28;20039;-43
2022/10/06 00:28:55;;;;;;;6.88;3.92;;;;;;;14.65;50.61;100937.03;5112845;28;20035;-44
2022/10/06 00:31:21;;;;;;;7.45;4.03;;;;;;;14.78;50.51;100928.19;5113202;28;20094;-43
2022/10/06 00:33:48;;;;;;;6.60;3.75;;;;;;;14.95;50.08;100931.34;5113111;28;20075;-42
2022/10/06 00:36:13;;;;;;;6.90;4.13;;;;;;;14.98;49.83;100927.41;5112850;27;20024;-42
2022/10/06 00:38:39;;;;;;;5.80;4.38;;;;;;;15.00;50.44;100925.34;5112856;28;20115;-42
2022/10/06 00:41:04;;;;;;;5.40;4.05;;;;;;;15.08;49.48;100929.69;5112841;28;20023;-43
2022/10/06 00:43:39;;;;;;;7.18;3.95;;;;;;;14.82;49.58;100926.75;5112520;28;20027;-43
2022/10/06 00:46:07;;;;;;;5.55;3.70;;;;;;;14.78;50.11;100924.72;5112457;28;20052;-43
2022/10/06 00:48:33;;;;;;;12.27;4.55;;;;;;;14.72;50.63;100920.16;5112601;28;20023;-43
2022/10/06 00:50:58;;;;;;;7.45;4.20;;;;;;;14.55;50.53;100931.19;5112547;28;20019;-42
2022/10/06 00:53:27;;;;;;;8.23;4.65;;;;;;;14.43;51.46;100916.72;5112440;28;20501;-43
2022/10/06 00:55:53;;;;;;;11.05;4.63;;;;;;;14.48;51.61;100915.09;5112366;28;20400;-42
2022/10/06 00:58:19;;;;;;;6.72;4.75;;;;;;;14.65;50.81;100926.31;5112122;28;20035;-42
2022/10/06 01:00:48;;;;;;;8.73;5.03;;;;;;;14.61;50.48;100924.25;5112143;28;20454;-43
2022/10/06 01:03:39;;;;;;;9.15;4.80;;;;;;;14.49;51.38;100921.28;5112288;28;20098;-42
2022/10/06 01:06:06;;;;;;;8.63;4.70;;;;;;;14.41;51.80;100916.09;5102839;28;20115;-43
2022/10/06 01:08:32;;;;;;;7.30;4.93;;;;;;;14.42;52.03;100925.78;5111759;28;20388;-43
2022/10/06 01:10:58;;;;;;;7.15;4.63;;;;;;;14.29;53.11;100921.19;5111987;28;20055;-44
2022/10/06 01:13:26;;;;;;;7.15;4.80;;;;;;;14.28;53.18;100920.38;5112301;28;20047;-43
2022/10/06 01:15:58;;;;;;;11.23;4.82;;;;;;;14.39;52.73;100920.81;5112141;28;20133;-44
2022/10/06 01:18:26;;;;;;;8.57;4.93;;;;;;;14.32;52.77;100910.09;5111887;28;20483;-45
2022/10/06 01:21:04;;;;;;;7.10;4.80;;;;;;;14.42;51.94;100917.75;5111842;28;20051;-43
2022/10/06 01:23:32;;;;;;;7.57;4.18;;;;;;;14.37;51.81;100918.34;5111607;28;20028;-43
2022/10/06 01:26:00;;;;;;;7.88;4.70;;;;;;;14.32;53.12;100919.97;5111643;28;20103;-44
2022/10/06 01:28:25;;;;;;;10.43;4.85;;;;;;;14.25;53.19;100919.94;5111979;28;20047;-42
2022/10/06 01:30:53;;;;;;;6.85;4.47;;;;;;;14.35;52.80;100923.06;5111782;28;20347;-43
2022/10/06 01:33:20;;;;;;;5.65;4.03;;;;;;;14.05;52.00;100918.00;5111629;28;20114;-43
2022/10/06 01:35:49;;;;;;;5.32;3.83;;;;;;;14.08;52.29;100919.44;5111734;28;20024;-44
2022/10/06 01:38:15;;;;;;;7.80;4.20;;;;;;;13.95;53.05;100916.69;5111876;28;20087;-43
2022/10/06 01:40:41;;;;;;;35.92;20.42;;;;;;;13.99;52.58;100918.81;5111368;28;20536;-42
2022/10/06 01:43:06;;;;;;;27.80;19.85;;;;;;;14.02;53.43;100915.72;5111184;28;20027;-44
2022/10/06 01:45:32;;;;;;;31.05;22.20;;;;;;;13.93;53.41;100919.56;5111199;28;20030;-43
2022/10/06 01:47:57;;;;;;;7.55;5.13;;;;;;;13.94;53.56;100915.88;5111360;28;20046;-43
2022/10/06 01:50:23;;;;;;;6.63;3.90;;;;;;;14.07;52.60;100917.81;5111870;28;20031;-42
2022/10/06 01:52:48;;;;;;;7.25;3.53;;;;;;;14.08;51.74;100912.22;5111251;28;20111;-43
2022/10/06 01:55:14;;;;;;;8.13;4.15;;;;;;;14.26;51.82;100922.44;5111316;28;20028;-43
2022/10/06 01:57:42;;;;;;;5.20;3.65;;;;;;;14.24;51.99;100915.59;5111105;28;20180;-42
2022/10/06 02:00:09;;;;;;;7.78;3.95;;;;;;;14.22;51.96;100913.16;5111056;28;20031;-43
2022/10/06 02:02:35;;;;;;;6.25;3.72;;;;;;;14.00;52.82;100911.59;5111273;28;20034;-42
2022/10/06 02:05:00;;;;;;;8.15;4.20;;;;;;;14.00;52.41;100916.94;5110828;28;20027;-42
2022/10/06 02:07:26;;;;;;;5.60;3.50;;;;;;;13.82;52.29;100899.56;5111239;28;20030;-42
2022/10/06 02:09:51;;;;;;;5.93;3.83;;;;;;;13.81;52.66;100907.78;5110976;28;20032;-43
2022/10/06 02:12:17;;;;;;;5.82;3.45;;;;;;;13.63;52.95;100906.44;5110931;28;20536;-42
2022/10/06 02:14:42;;;;;;;6.05;3.50;;;;;;;13.68;52.64;100909.31;5110865;28;20402;-42
2022/10/06 02:17:08;;;;;;;6.35;3.75;;;;;;;13.59;53.25;100910.50;5110340;28;20056;-42
2022/10/06 02:19:34;;;;;;;6.25;3.90;;;;;;;13.53;53.62;100913.13;5111060;28;20436;-42
2022/10/06 02:22:01;;;;;;;8.50;4.70;;;;;;;13.63;54.06;100905.56;5110787;28;20071;-43
2022/10/06 02:24:27;;;;;;;6.53;4.18;;;;;;;13.69;54.22;100904.81;5110698;28;20371;-43
2022/10/06 02:26:53;;;;;;;6.03;3.85;;;;;;;13.77;52.91;100911.88;5110724;28;20020;-43
2022/10/06 02:29:19;;;;;;;5.22;3.50;;;;;;;13.70;52.77;100911.81;5110635;27;20023;-44
2022/10/06 02:31:45;;;;;;;7.53;3.58;;;;;;;13.66;52.94;100905.19;5110851;28;20573;-43
2022/10/06 02:34:11;;;;;;;7.53;3.80;;;;;;;13.56;53.69;100916.25;5110589;28;20054;-43
2022/10/06 02:36:36;;;;;;;5.93;3.67;;;;;;;13.51;54.02;100916.00;5110509;28;20059;-43
2022/10/06 02:39:03;;;;;;;4.97;3.20;;;;;;;13.44;54.72;100917.78;5110499;28;20027;-43
2022/10/06 02:41:28;;;;;;;6.68;3.22;;;;;;;13.56;53.98;100918.91;5110228;28;20043;-45
2022/10/06 02:43:54;;;;;;;9.55;3.42;;;;;;;13.71;53.12;100918.81;5110903;28;20095;-43
2022/10/06 02:46:20;;;;;;;7.93;3.47;;;;;;;13.52;53.08;100911.47;5110462;28;20399;-44
2022/10/06 02:48:46;;;;;;;6.95;3.38;;;;;;;13.47;53.46;100912.06;5110420;28;20411;-42
2022/10/06 02:51:14;;;;;;;7.65;3.85;;;;;;;13.37;53.88;100915.06;5110395;28;20042;-43
2022/10/06 02:53:44;;;;;;;6.30;4.03;;;;;;;13.27;53.78;100920.72;5110807;28;20032;-42
2022/10/06 02:56:17;;;;;;;7.57;3.70;;;;;;;13.07;54.87;100919.72;5110198;28;20038;-42
2022/10/06 02:58:43;;;;;;;5.88;3.80;;;;;;;13.06;55.26;100918.88;5110720;28;20027;-43
2022/10/06 03:01:15;;;;;;;5.45;3.78;;;;;;;13.16;54.98;100923.09;5110460;28;20028;-44
2022/10/06 03:03:42;;;;;;;6.97;4.15;;;;;;;13.25;54.32;100922.75;5110110;28;20028;-42
2022/10/06 03:06:21;;;;;;;6.13;4.00;;;;;;;13.12;55.30;100925.31;5110751;28;20115;-42
2022/10/06 03:08:53;;;;;;;6.30;4.07;;;;;;;13.13;55.17;100918.94;5110286;28;20034;-43
2022/10/06 03:11:21;;;;;;;7.35;3.95;;;;;;;13.18;56.42;100916.53;5110131;28;20277;-43
2022/10/06 03:13:48;;;;;;;8.13;4.70;;;;;;;13.23;54.94;100919.47;5110373;28;20482;-42
2022/10/06 03:16:25;;;;;;;7.47;4.10;;;;;;;13.35;54.31;100917.13;5110005;28;20106;-43
2022/10/06 03:18:53;;;;;;;10.65;6.30;;;;;;;13.25;54.83;100913.88;5110524;28;20070;-42
2022/10/06 03:21:23;;;;;;;10.27;5.00;;;;;;;13.25;55.00;100914.75;5109929;28;20050;-45
2022/10/06 03:23:51;;;;;;;11.88;5.95;;;;;;;13.17;54.33;100912.19;5110367;28;20100;-42
2022/10/06 03:26:19;;;;;;;5.75;4.07;;;;;;;13.15;54.72;100914.22;5110719;28;20121;-44
2022/10/06 03:28:45;;;;;;;6.50;4.15;;;;;;;13.12;54.60;100906.59;5113072;28;20104;-42
2022/10/06 03:31:11;;;;;;;8.02;4.10;;;;;;;12.84;56.43;100914.56;5114294;27;20474;-42
2022/10/06 03:33:36;;;;;;;8.93;4.28;;;;;;;12.69;56.78;100903.91;5114145;28;20154;-42
2022/10/06 03:36:06;;;;;;;7.85;4.43;;;;;;;12.65;56.41;100899.97;5114154;28;20106;-43
2022/10/06 03:38:33;;;;;;;6.68;4.63;;;;;;;12.64;56.44;100901.81;5114156;28;20027;-43
2022/10/06 03:41:05;;;;;;;5.57;3.88;;;;;;;12.43;57.61;100904.44;5113886;28;20059;-43
2022/10/06 03:43:31;;;;;;;6.95;4.20;;;;;;;12.57;56.75;100906.25;5113713;28;20096;-43
2022/10/06 03:45:59;;;;;;;8.30;4.20;;;;;;;12.49;58.43;100896.50;5113941;28;20019;-41
2022/10/06 03:48:28;;;;;;;10.82;4.70;;;;;;;12.86;56.81;100901.81;5113506;28;20027;-43
2022/10/06 03:50:59;;;;;;;10.02;5.00;;;;;;;12.93;55.11;100908.06;5113818;28;20112;-43
2022/10/06 03:53:27;;;;;;;11.57;5.10;;;;;;;12.92;55.93;100909.06;5113509;28;20145;-41
2022/10/06 03:56:05;;;;;;;11.70;4.93;;;;;;;12.79;56.38;100912.44;5113424;28;20028;-41
2022/10/06 03:58:33;;;;;;;8.27;4.93;;;;;;;12.93;55.99;100893.84;5112091;28;20110;-43
2022/10/06 04:01:08;;;;;;;12.40;5.50;;;;;;;12.93;57.17;100904.53;5112609;27;20024;-42
2022/10/06 04:03:34;;;;;;;9.20;4.97;;;;;;;12.91;56.85;100908.25;5113620;28;20032;-42
2022/10/06 04:06:04;;;;;;;11.80;4.38;;;;;;;12.92;55.71;100901.06;5113141;28;20028;-42
2022/10/06 04:08:32;;;;;;;11.35;4.80;;;;;;;13.13;57.64;100905.56;5112750;28;20085;-42
2022/10/06 04:11:08;;;;;;;7.53;4.90;;;;;;;13.28;57.68;100903.66;5112959;28;20110;-41
2022/10/06 04:13:34;;;;;;;9.43;5.93;;;;;;;13.37;55.81;100893.69;5113129;28;20415;-43
2022/10/06 04:16:10;;;;;;;19.42;13.85;;;;;;;13.43;54.76;100890.22;5112495;28;20031;-42
2022/10/06 04:18:37;;;;;;;56.40;30.85;;;;;;;13.49;54.38;100896.66;5112961;28;20027;-42
2022/10/06 04:21:02;;;;;;;14.75;8.13;;;;;;;13.33;54.72;100903.13;5112699;28;20078;-43
2022/10/06 04:23:28;;;;;;;10.52;5.22;;;;;;;13.28;55.49;100902.81;5112490;28;20055;-43
2022/10/06 04:26:05;;;;;;;10.27;4.45;;;;;;;13.00;55.73;100902.78;5112723;28;20030;-42
2022/10/06 04:28:31;;;;;;;7.90;4.03;;;;;;;13.09;55.36;100898.97;5113261;28;20414;-42
2022/10/06 04:31:00;;;;;;;7.55;4.07;;;;;;;13.11;55.03;100897.75;5114138;28;20023;-44
2022/10/06 04:33:26;;;;;;;5.13;3.40;;;;;;;13.14;54.86;100895.72;5112909;28;20051;-42
2022/10/06 04:36:02;;;;;;;7.07;3.63;;;;;;;13.11;54.51;100894.25;5112778;28;20062;-41
2022/10/06 04:38:31;;;;;;;6.45;3.78;;;;;;;13.17;57.28;100890.81;5107778;28;20502;-41
2022/10/06 04:41:05;;;;;;;6.03;3.53;;;;;;;13.14;56.29;100896.56;5102319;28;20019;-42
2022/10/06 04:43:32;;;;;;;9.43;4.00;;;;;;;13.48;53.63;100903.84;5100627;28;20031;-44
2022/10/06 04:45:59;;;;;;;6.93;4.03;;;;;;;13.66;53.30;100898.00;5098853;28;20052;-41
2022/10/06 04:48:29;;;;;;;7.10;3.92;;;;;;;13.87;52.12;100891.75;5092206;28;20024;-42
2022/10/06 04:51:03;;;;;;;8.48;3.63;;;;;;;14.04;51.87;100897.59;5092406;28;20477;-44
2022/10/06 04:53:29;;;;;;;8.68;3.90;;;;;;;14.40;51.17;100903.75;5092350;28;20073;-41
2022/10/06 04:56:05;;;;;;;10.00;3.75;;;;;;;14.53;50.56;100897.63;5096586;28;20044;-43
2022/10/06 04:58:33;;;;;;;7.05;3.70;;;;;;;14.44;50.61;100896.97;5111430;28;20023;-43
2022/10/06 05:00:59;;;;;;;13.15;7.88;;;;;;;14.72;50.02;100898.72;5108041;28;20312;-43
2022/10/06 05:03:27;;;;;;;14.60;5.22;;;;;;;14.91;50.83;100900.63;5105863;28;20118;-43
2022/10/06 05:06:02;;;;;;;10.00;3.78;;;;;;;15.15;48.92;100891.13;5112343;28;20490;-44
2022/10/06 05:08:27;;;;;;;7.90;3.80;;;;;;;15.06;48.12;100900.44;5112121;28;20442;-43
2022/10/06 05:11:05;;;;;;;3.78;3.10;;;;;;;15.35;48.61;100906.41;5112141;28;20028;-42
2022/10/06 05:13:31;;;;;;;7.00;2.97;;;;;;;15.61;47.67;100903.72;5112350;28;20028;-42
2022/10/06 05:15:58;;;;;;;12.23;4.63;;;;;;;16.01;47.14;100906.34;5112396;28;20023;-44
2022/10/06 05:18:24;;;;;;;14.10;6.05;;;;;;;16.55;45.59;100912.31;5112217;28;20120;-43
2022/10/06 05:21:02;;;;;;;6.90;3.80;;;;;;;16.93;44.89;100908.03;5111888;28;20044;-43
2022/10/06 05:23:30;;;;;;;8.05;3.08;;;;;;;17.27;43.58;100905.88;5111473;28;20028;-38
2022/10/06 05:25:57;;;;;;;11.05;6.25;;;;;;;17.20;43.64;100905.94;5111441;28;20092;-36
2022/10/06 05:28:24;;;;;;;9.63;3.95;;;;;;;17.30;43.07;100908.16;5111360;28;20016;-36
2022/10/06 05:31:04;;;;;;;9.63;4.15;;;;;;;17.62;42.67;100913.47;5111152;28;20019;-36
2022/10/06 05:33:32;;;;;;;6.82;3.58;;;;;;;17.73;42.13;100916.25;5111132;28;20525;-36
2022/10/06 05:36:06;;;;;;;8.02;3.40;;;;;;;17.81;41.57;100915.13;5111296;28;20033;-38
2022/10/06 05:38:32;;;;;;;5.82;3.03;;;;;;;18.06;41.24;100922.34;5111082;28;20023;-36
2022/10/06 05:41:03;;;;;;;7.15;2.97;;;;;;;18.28;40.95;100928.13;5111038;28;20115;-36
2022/10/06 05:43:29;;;;;;;5.43;3.00;;;;;;;18.79;39.65;100929.53;5110654;28;20030;-37
2022/10/06 05:45:57;;;;;;;7.43;3.20;;;;;;;19.16;39.24;100936.72;5110080;28;20102;-37
2022/10/06 05:48:23;;;;;;;5.82;3.20;;;;;;;19.44;38.25;100933.31;5110107;28;20083;-36
2022/10/06 05:51:00;;;;;;;17.30;8.45;;;;;;;19.47;38.18;100933.69;5110258;28;20100;-37
2022/10/06 05:53:30;;;;;;;9.68;3.67;;;;;;;19.91;38.04;100930.66;5110758;28;20024;-36
2022/10/06 05:56:29;;;;;;;10.50;3.50;;;;;;;20.37;36.99;100933.50;5107228;28;20513;-35
2022/10/06 05:58:56;;;;;;;5.28;3.20;;;;;;;20.58;36.26;100926.63;5091818;28;20108;-36
2022/10/06 06:01:26;;;;;;;10.63;3.55;;;;;;;20.79;35.90;100930.56;5099237;28;20400;-37
2022/10/06 06:04:00;;;;;;;10.85;3.58;;;;;;;20.99;35.58;100938.22;5090802;28;20095;-36
2022/10/06 06:06:30;;;;;;;7.25;3.33;;;;;;;21.37;34.84;100936.69;5089975;28;20019;-42
2022/10/06 06:08:58;;;;;;;12.80;3.45;;;;;;;21.60;34.94;100935.72;5090039;28;20024;-42
2022/10/06 06:11:26;;;;;;;6.45;2.50;;;;;;;21.84;33.80;100942.59;5101598;28;20016;-42
2022/10/06 06:13:56;;;;;;;16.25;8.70;;;;;;;22.28;33.66;100943.75;5107700;27;20025;-41
2022/10/06 06:16:22;;;;;;;9.98;4.80;;;;;;;22.74;32.87;100946.97;5113100;27;20016;-41
2022/10/06 06:18:48;;;;;;;10.15;4.60;;;;;;;23.15;32.11;100952.81;5118539;27;20348;-41
2022/10/06 06:21:13;;;;;;;10.80;3.97;;;;;;;23.40;31.54;100958.47;5117839;27;20107;-42
2022/10/06 06:23:45;;;;;;;12.98;5.28;;;;;;;23.84;30.91;100965.59;5109759;28;20023;-43
2022/10/06 06:26:22;;;;;;;11.43;4.72;;;;;;;23.50;30.98;100957.72;5109503;28;20478;-40
2022/10/06 06:28:49;;;;;;;7.65;3.35;;;;;;;23.87;30.68;100956.91;5108831;28;20118;-42
2022/10/06 06:31:26;;;;;;;10.57;3.20;;;;;;;24.29;30.08;100960.63;5109025;28;20042;-41
2022/10/06 06:33:53;;;;;;;8.90;3.00;;;;;;;24.03;30.17;100963.25;5109042;28;20023;-41
2022/10/06 06:36:25;;;;;;;7.50;3.00;;;;;;;24.42;29.66;100962.88;5108892;28;20041;-43
2022/10/06 06:38:53;;;;;;;5.18;3.10;;;;;;;24.71;29.19;100960.56;5108896;28;20166;-43
2022/10/06 06:41:24;;;;;;;6.05;3.00;;;;;;;24.80;29.05;100957.31;5109023;28;20027;-41
2022/10/06 06:43:51;;;;;;;8.93;3.50;;;;;;;24.61;29.07;100963.25;5109471;28;20064;-42
2022/10/06 06:46:19;;;;;;;6.03;2.97;;;;;;;24.31;29.46;100962.03;5110134;28;20036;-44
2022/10/06 06:48:46;;;;;;;5.35;3.00;;;;;;;24.11;29.81;100957.31;5109870;28;20067;-42
2022/10/06 06:51:12;;;;;;;9.45;3.65;;;;;;;23.65;31.43;100946.16;5109437;28;20023;-43
2022/10/06 06:53:38;;;;;;;6.60;3.10;;;;;;;24.16;30.10;100951.91;5109135;28;20531;-43
2022/10/06 06:56:05;;;;;;;10.35;3.10;;;;;;;24.76;29.03;100941.50;5109272;28;20031;-40
2022/10/06 06:58:31;;;;;;;6.72;3.10;;;;;;;24.72;29.29;100943.13;5109392;28;20015;-43
2022/10/06 07:01:23;;;;;;;7.70;3.03;;;;;;;24.63;29.22;100939.28;5109314;28;20034;-44
2022/10/06 07:03:53;;;;;;;8.00;2.95;;;;;;;24.76;29.00;100946.13;5108345;28;20602;-42
2022/10/06 07:06:19;;;;;;;7.28;3.10;;;;;;;24.57;29.45;100953.97;5113147;28;20038;-42
2022/10/06 07:08:46;;;;;;;9.13;3.20;;;;;;;24.47;29.18;100943.03;5113320;28;20177;-43
2022/10/06 07:11:16;;;;;;;7.30;3.00;;;;;;;24.95;28.50;100944.53;5112941;28;20030;-43
2022/10/06 07:13:41;;;;;;;8.00;2.80;;;;;;;25.62;27.72;100941.81;5112309;28;20023;-43
2022/10/06 07:27:07;;;;;;;4.55;2.95;;;;;;;26.67;26.31;100926.47;5110739;28;20080;-44
2022/10/06 07:29:32;;;;;;;4.82;3.30;;;;;;;26.69;26.62;100916.09;5113745;28;20027;-42
2022/10/06 07:31:58;;;;;;;6.45;3.05;;;;;;;26.98;25.93;100922.69;5113523;28;20022;-44
2022/10/06 07:34:23;;;;;;;9.63;2.90;;;;;;;27.02;26.08;100915.56;5113560;28;20471;-45
2022/10/06 07:36:53;;;;;;;8.75;3.00;;;;;;;26.96;25.92;100908.50;5113638;28;20028;-42
2022/10/06 07:39:19;;;;;;;14.45;3.95;;;;;;;26.31;29.08;100915.72;5113028;28;20133;-44
2022/10/06 07:41:44;;;;;;;18.60;3.88;;;;;;;26.59;26.16;100907.94;5112845;28;20455;-43
2022/10/06 07:44:10;;;;;;;16.95;4.45;;;;;;;26.83;26.07;100907.25;5113093;28;20091;-44
2022/10/06 07:46:35;;;;;;;8.45;3.08;;;;;;;26.80;26.03;100905.88;5111686;28;20492;-43
2022/10/06 07:49:00;;;;;;;5.65;3.22;;;;;;;26.69;25.89;100901.59;5108949;28;20023;-46
2022/10/06 07:51:27;;;;;;;6.35;2.80;;;;;;;27.10;25.37;100901.28;5113681;28;20035;-42
2022/10/06 07:53:52;;;;;;;6.28;2.90;;;;;;;26.89;25.70;100889.72;5113271;28;20019;-43
2022/10/06 07:56:19;;;;;;;5.15;2.33;;;;;;;27.27;25.11;100898.19;5101006;28;20375;-42
2022/10/06 07:58:49;;;;;;;4.43;2.38;;;;;;;27.32;25.21;100883.63;5108649;28;20019;-43
2022/10/06 08:01:18;;;;;;;4.97;2.10;;;;;;;27.47;25.17;100886.22;5092901;28;20024;-43
2022/10/06 08:03:47;;;;;;;6.65;2.33;;;;;;;27.27;25.23;100884.50;5091727;28;20024;-42
2022/10/06 08:06:14;;;;;;;5.22;2.35;;;;;;;26.95;25.54;100874.94;5092652;28;20476;-42
2022/10/06 08:08:41;;;;;;;6.57;2.17;;;;;;;26.46;25.71;100857.50;5092736;28;20026;-43
2022/10/06 08:11:08;;;;;;;4.00;2.70;;;;;;;26.92;25.60;100864.56;5091310;28;20028;-42
2022/10/06 08:13:35;;;;;;;5.68;3.08;;;;;;;26.28;26.33;100871.81;5091095;28;20028;-43
2022/10/06 08:16:08;;;;;;;4.68;2.50;;;;;;;26.81;25.84;100873.97;5090403;28;20042;-42
2022/10/06 08:18:33;;;;;;;4.78;2.10;;;;;;;27.49;24.68;100873.91;5091820;28;20032;-45
2022/10/06 08:20:59;;;;;;;4.30;2.20;;;;;;;27.57;24.82;100864.25;5090933;28;20442;-43
2022/10/06 08:23:24;;;;;;;5.60;2.90;;;;;;;27.72;24.41;100863.28;5090881;28;20488;-42
2022/10/06 08:25:53;;;;;;;5.07;2.90;;;;;;;27.97;24.28;100866.81;5090960;28;20436;-45
2022/10/06 08:28:20;;;;;;;10.50;3.07;;;;;;;28.26;23.96;100869.44;5091079;28;20024;-43
2022/10/06 08:30:46;;;;;;;10.30;3.40;;;;;;;27.54;24.71;100862.09;5091026;28;20182;-46
2022/10/06 08:33:12;;;;;;;5.88;2.58;;;;;;;27.87;24.49;100865.81;5091065;28;20118;-48
2022/10/06 08:35:38;;;;;;;4.25;2.17;;;;;;;28.26;23.85;100863.97;5091922;28;20030;-44
2022/10/06 08:38:04;;;;;;;6.30;2.40;;;;;;;28.21;23.88;100867.56;5092311;28;20027;-42
2022/10/06 08:40:31;;;;;;;6.20;2.50;;;;;;;28.35;23.50;100864.94;5092077;28;20020;-43
2022/10/06 08:43:00;;;;;;;5.43;3.53;;;;;;;28.34;23.41;100868.78;5091998;28;20023;-45
2022/10/06 08:45:34;;;;;;;7.18;3.47;;;;;;;28.46;23.71;100869.16;5092047;28;20439;-44
2022/10/06 08:48:02;;;;;;;5.15;3.03;;;;;;;28.59;23.95;100858.59;5091997;28;20028;-42
2022/10/06 08:50:31;;;;;;;5.18;2.67;;;;;;;26.93;25.65;100863.47;5092049;28;20136;-43
2022/10/06 08:53:08;;;;;;;5.60;2.97;;;;;;;27.79;24.61;100868.38;5092223;28;20031;-45
2022/10/06 08:55:48;;;;;;;3.88;2.58;;;;;;;27.78;24.47;100861.25;5091881;28;20020;-46
2022/10/06 08:58:36;;;;;;;6.97;3.30;;;;;;;27.99;24.33;100862.69;5091827;28;20032;-45
2022/10/06 09:01:16;;;;;;;6.30;2.65;;;;;;;28.08;24.24;100858.19;5091857;28;20062;-45
2022/10/06 09:03:47;;;;;;;4.82;2.47;;;;;;;27.57;24.31;100852.47;5091788;28;20456;-45
2022/10/06 09:06:39;;;;;;;6.32;2.70;;;;;;;27.90;24.63;100848.03;5091282;28;20031;-44
2022/10/06 09:09:16;;;;;;;6.18;2.60;;;;;;;28.39;24.11;100849.53;5092083;28;20035;-42
2022/10/06 09:11:59;;;;;;;5.03;2.50;;;;;;;28.72;23.53;100843.31;5091419;28;20103;-43
2022/10/06 09:14:40;;;;;;;7.32;2.40;;;;;;;28.79;23.27;100850.03;5090880;28;20505;-44
2022/10/06 09:17:10;;;;;;;5.13;2.88;;;;;;;28.63;23.64;100838.50;5091362;28;20055;-42
2022/10/06 09:19:40;;;;;;;6.47;2.83;;;;;;;28.56;23.73;100837.25;5091108;28;20126;-43
2022/10/06 09:22:15;;;;;;;3.95;2.40;;;;;;;28.20;23.92;100837.78;5091290;28;20559;-43
2022/10/06 09:24:41;;;;;;;6.55;2.53;;;;;;;27.63;24.44;100843.94;5091133;28;20480;-43
2022/10/06 09:27:32;;;;;;;8.50;2.83;;;;;;;28.23;24.04;100828.97;5090467;28;20382;-42
2022/10/06 09:30:00;;;;;;;6.38;2.15;;;;;;;28.10;23.88;100827.78;5091012;28;20020;-42
2022/10/06 09:32:27;;;;;;;4.88;2.40;;;;;;;28.23;23.86;100831.72;5089898;28;20016;-41
2022/10/06 09:35:03;;;;;;;3.78;2.10;;;;;;;28.51;23.73;100829.13;5091008;28;20073;-42
2022/10/06 09:37:48;;;;;;;5.88;2.35;;;;;;;28.62;23.39;100816.94;5090483;28;20468;-45
2022/10/06 09:40:32;;;;;;;6.55;2.50;;;;;;;27.50;24.67;100826.31;5090332;28;20055;-42
2022/10/06 09:42:57;;;;;;;5.60;2.40;;;;;;;27.48;24.96;100830.47;5090975;28;20028;-44
2022/10/06 09:45:31;;;;;;;5.82;2.20;;;;;;;27.62;24.64;100823.16;5090578;28;20023;-41
2022/10/06 09:48:12;;;;;;;4.43;2.78;;;;;;;27.89;24.02;100813.56;5090612;28;20020;-44
2022/10/06 09:50:37;;;;;;;3.28;2.35;;;;;;;28.35;23.83;100818.41;5090799;28;20039;-43
2022/10/06 09:53:15;;;;;;;8.23;2.80;;;;;;;28.56;23.82;100818.94;5090177;28;20036;-45
2022/10/06 09:55:50;;;;;;;4.65;2.22;;;;;;;28.27;23.88;100813.59;5090078;28;20016;-47
2022/10/06 09:58:20;;;;;;;5.28;1.95;;;;;;;28.25;23.70;100802.97;5090603;28;20024;-43
2022/10/06 10:00:52;;;;;;;4.22;2.20;;;;;;;28.59;23.31;100801.88;5090600;28;20114;-45
2022/10/06 10:03:18;;;;;;;3.83;1.80;;;;;;;28.26;23.25;100798.28;5089016;28;20027;-42
2022/10/06 10:05:49;;;;;;;3.05;1.73;;;;;;;27.61;23.68;100798.88;5090510;28;20031;-44
2022/10/06 10:08:24;;;;;;;3.65;2.05;;;;;;;27.73;24.34;100798.47;5090249;28;20095;-44
2022/10/06 10:14:03;;;;;;;5.30;2.28;;;;;;;27.39;24.61;100785.75;5090008;28;20042;-42
2022/10/06 10:16:34;;;;;;;6.13;1.85;;;;;;;27.80;23.89;100777.84;5089333;28;20412;-42
2022/10/06 10:19:03;;;;;;;8.35;2.40;;;;;;;28.00;24.31;100767.75;5089801;28;20024;-42
2022/10/06 10:21:35;;;;;;;3.05;1.80;;;;;;;28.69;23.70;100773.53;5089632;28;20562;-43
2022/10/06 10:24:05;;;;;;;4.53;2.17;;;;;;;29.04;23.11;100766.59;5089885;28;20038;-43
2022/10/06 10:26:43;;;;;;;25.90;3.28;;;;;;;28.26;23.98;100759.97;5089567;28;20077;-46
2022/10/06 10:29:17;;;;;;;14.10;2.35;;;;;;;27.69;24.35;100762.69;5089471;28;20034;-42
2022/10/06 10:32:25;;;;;;;5.25;2.05;;;;;;;28.34;23.98;100756.56;5089543;28;20020;-43
2022/10/06 10:34:58;;;;;;;4.60;2.15;;;;;;;28.23;24.44;100746.88;5055941;28;20035;-42
2022/10/06 10:37:23;;;;;;;5.40;1.90;;;;;;;28.08;24.23;100739.72;5089745;28;20028;-43
2022/10/06 10:39:57;;;;;;;3.40;2.15;;;;;;;28.16;23.61;100735.50;5090292;28;20084;-44
2022/10/06 10:42:39;;;;;;;5.47;2.30;;;;;;;27.93;24.22;100735.31;5090404;28;20047;-44
2022/10/06 10:45:20;;;;;;;6.65;2.13;;;;;;;28.00;24.37;100724.78;5090179;28;20054;-43
2022/10/06 10:47:48;;;;;;;5.80;1.70;;;;;;;27.65;24.16;100726.91;5090456;28;20020;-42
2022/10/06 10:50:32;;;;;;;2.80;1.95;;;;;;;27.77;24.11;100726.47;5089542;28;20024;-43
2022/10/06 10:53:17;;;;;;;3.45;1.70;;;;;;;27.92;24.01;100717.25;5089408;28;20043;-44
2022/10/06 10:55:47;;;;;;;5.47;2.40;;;;;;;28.01;24.04;100717.44;5089286;28;20417;-43
2022/10/06 10:58:35;;;;;;;3.53;1.77;;;;;;;28.64;22.87;100714.19;5090190;28;20125;-43
2022/10/06 11:01:13;;;;;;;3.63;1.80;;;;;;;29.15;22.27;100717.09;5090005;28;20027;-46
2022/10/06 11:03:39;;;;;;;5.32;1.92;;;;;;;29.27;22.45;100709.19;5090294;28;20063;-43
2022/10/06 11:06:13;;;;;;;4.07;1.80;;;;;;;29.58;22.37;100709.34;5090062;28;20149;-42
2022/10/06 11:08:57;;;;;;;6.60;2.55;;;;;;;29.75;22.22;100700.50;5090115;28;20032;-42
2022/10/06 11:11:53;;;;;;;6.07;2.08;;;;;;;29.47;22.59;100699.72;5089792;28;20031;-43
2022/10/06 11:14:49;;;;;;;6.25;2.00;;;;;;;28.43;23.32;100696.50;5090075;28;20068;-45
2022/10/06 11:17:42;;;;;;;7.45;2.97;;;;;;;28.65;23.12;100698.56;5090048;28;20312;-44
2022/10/06 11:20:11;;;;;;;6.05;3.10;;;;;;;29.41;22.42;100681.75;5089494;28;20024;-43
2022/10/06 11:22:49;;;;;;;4.88;2.05;;;;;;;28.98;22.53;100671.94;5089859;28;20111;-45
2022/10/06 11:25:20;;;;;;;3.67;1.65;;;;;;;29.35;22.10;100683.00;5089859;28;20502;-44
2022/10/06 11:27:54;;;;;;;3.40;1.85;;;;;;;28.78;22.32;100678.59;5089659;28;20113;-43
2022/10/06 11:30:25;;;;;;;8.20;3.17;;;;;;;28.52;22.27;100674.72;5089852;28;20111;-45
2022/10/06 11:33:20;;;;;;;5.63;3.25;;;;;;;28.90;22.60;100671.81;5089783;28;20077;-44
2022/10/06 11:35:47;;;;;;;3.35;1.80;;;;;;;29.12;21.78;100663.69;5089328;28;20016;-44
2022/10/06 11:38:19;;;;;;;4.50;1.83;;;;;;;28.83;22.27;100661.28;5089581;28;20080;-44
2022/10/06 11:41:08;;;;;;;4.47;1.80;;;;;;;28.87;22.51;100664.22;5089581;28;20440;-45
2022/10/06 11:43:41;;;;;;;2.55;1.70;;;;;;;29.09;22.09;100656.09;5089553;28;20225;-44
2022/10/06 11:46:13;;;;;;;1.90;1.50;;;;;;;29.20;21.26;100659.47;5089477;28;20400;-44
2022/10/06 11:48:39;;;;;;;2.17;1.55;;;;;;;29.34;21.62;100654.78;5090442;28;20039;-45
2022/10/06 11:51:23;;;;;;;4.43;1.63;;;;;;;29.33;21.63;100655.09;5092832;28;20070;-45
2022/10/06 11:53:49;;;;;;;2.55;1.52;;;;;;;29.12;20.95;100649.19;5092665;28;20411;-44